sensor_id;sensor_type;location;lat;lon;timestamp;P1;durP1;ratioP1;P2;durP2;ratioP2
81150;SDS011;70629;-26.026;27.976;2023-10-31T00:00:37;5.80;;;2.40;;
81150;SDS011;70629;-26.026;27.976;2023-10-31T00:01:17;4.78;;;2.30;;
81150;SDS011;70629;-26.026;27.976;2023-10-31T00:01:57;3.80;;;2.40;;
81150;SDS011;70629;-26.026;27.976;2023-10-31T00:02:38;6.63;;;2.40;;
81150;SDS011;70629;-26.026;27.976;2023-10-31T00:03:18;3.78;;;1.80;;
81150;SDS011;70629;-26.026;27.976;2023-10-31T00:03:58;4.55;;;2.22;;
81150;SDS011;70629;-26.026;27.976;2023-10-31T00:04:38;4.03;;;2.20;;
81150;SDS011;70629;-26.026;27.976;2023-10-31T00:05:18;5.78;;;2.00;;
81150;SDS011;70629;-26.026;27.976;2023-10-31T00:06:00;4.00;;;1.90;;
81150;SDS011;70629;-26.026;27.976;2023-10-31T00:06:40;3.97;;;2.30;;
81150;SDS011;70629;-26.026;27.976;2023-10-31T00:07:20;3.40;;;1.80;;
81150;SDS011;70629;-26.026;27.976;2023-10-31T00:08:00;5.95;;;2.13;;
81150;SDS011;70629;-26.026;27.976;2023-10-31T00:08:40;4.03;;;2.08;;
81150;SDS011;70629;-26.026;27.976;2023-10-31T00:09:19;4.10;;;2.13;;
81150;SDS011;70629;-26.026;27.976;2023-10-31T00:10:00;4.05;;;2.42;;
81150;SDS011;70629;-26.026;27.976;2023-10-31T00:10:40;4.20;;;2.50;;
81150;SDS011;70629;-26.026;27.976;2023-10-31T00:11:23;4.50;;;2.40;;
81150;SDS011;70629;-26.026;27.976;2023-10-31T00:12:03;3.80;;;2.05;;
81150;SDS011;70629;-26.026;27.976;2023-10-31T00:12:43;3.75;;;2.22;;
81150;SDS011;70629;-26.026;27.976;2023-10-31T00:13:23;4.65;;;2.60;;
81150;SDS011;70629;-26.026;27.976;2023-10-31T00:14:03;4.55;;;2.90;;
81150;SDS011;70629;-26.026;27.976;2023-10-31T00:15:03;4.88;;;2.50;;
81150;SDS011;70629;-26.026;27.976;2023-10-31T00:15:43;4.35;;;2.58;;
81150;SDS011;70629;-26.026;27.976;2023-10-31T00:16:23;5.18;;;2.60;;
81150;SDS011;70629;-26.026;27.976;2023-10-31T00:17:03;5.20;;;3.35;;
81150;SDS011;70629;-26.026;27.976;2023-10-31T00:17:43;7.28;;;3.25;;
81150;SDS011;70629;-26.026;27.976;2023-10-31T00:18:23;6.82;;;3.22;;
81150;SDS011;70629;-26.026;27.976;2023-10-31T00:19:03;6.30;;;3.75;;
81150;SDS011;70629;-26.026;27.976;2023-10-31T00:19:43;6.45;;;3.60;;
81150;SDS011;70629;-26.026;27.976;2023-10-31T00:20:23;6.35;;;4.05;;
81150;SDS011;70629;-26.026;27.976;2023-10-31T00:21:03;5.95;;;3.63;;
81150;SDS011;70629;-26.026;27.976;2023-10-31T00:21:44;7.15;;;4.00;;
81150;SDS011;70629;-26.026;27.976;2023-10-31T00:22:24;8.15;;;4.13;;
81150;SDS011;70629;-26.026;27.976;2023-10-31T00:23:03;7.88;;;4.43;;
81150;SDS011;70629;-26.026;27.976;2023-10-31T00:23:44;6.60;;;4.18;;
81150;SDS011;70629;-26.026;27.976;2023-10-31T00:24:24;7.18;;;3.90;;
81150;SDS011;70629;-26.026;27.976;2023-10-31T00:25:04;8.75;;;4.28;;
81150;SDS011;70629;-26.026;27.976;2023-10-31T00:25:44;7.28;;;4.18;;
81150;SDS011;70629;-26.026;27.976;2023-10-31T00:26:24;9.25;;;4.60;;
81150;SDS011;70629;-26.026;27.976;2023-10-31T00:27:05;7.90;;;4.72;;
81150;SDS011;70629;-26.026;27.976;2023-10-31T00:27:45;7.35;;;4.47;;
81150;SDS011;70629;-26.026;27.976;2023-10-31T00:28:24;8.05;;;4.80;;
81150;SDS011;70629;-26.026;27.976;2023-10-31T00:29:04;7.25;;;4.63;;
81150;SDS011;70629;-26.026;27.976;2023-10-31T00:29:44;7.40;;;4.80;;
81150;SDS011;70629;-26.026;27.976;2023-10-31T00:30:24;8.50;;;5.03;;
81150;SDS011;70629;-26.026;27.976;2023-10-31T00:31:04;10.30;;;5.10;;
81150;SDS011;70629;-26.026;27.976;2023-10-31T00:31:46;9.77;;;5.50;;
81150;SDS011;70629;-26.026;27.976;2023-10-31T00:32:27;9.73;;;5.15;;
81150;SDS011;70629;-26.026;27.976;2023-10-31T00:33:07;11.15;;;5.63;;
81150;SDS011;70629;-26.026;27.976;2023-10-31T00:33:47;11.80;;;6.68;;
81150;SDS011;70629;-26.026;27.976;2023-10-31T00:34:27;8.85;;;5.95;;
81150;SDS011;70629;-26.026;27.976;2023-10-31T00:35:07;10.82;;;6.28;;
81150;SDS011;70629;-26.026;27.976;2023-10-31T00:35:47;10.40;;;6.30;;
81150;SDS011;70629;-26.026;27.976;2023-10-31T00:36:27;10.25;;;6.60;;
81150;SDS011;70629;-26.026;27.976;2023-10-31T00:37:07;10.38;;;6.68;;
81150;SDS011;70629;-26.026;27.976;2023-10-31T00:37:47;10.15;;;6.80;;
81150;SDS011;70629;-26.026;27.976;2023-10-31T00:38:27;9.65;;;5.85;;
81150;SDS011;70629;-26.026;27.976;2023-10-31T00:39:07;11.52;;;6.75;;
81150;SDS011;70629;-26.026;27.976;2023-10-31T00:39:47;11.60;;;6.60;;
81150;SDS011;70629;-26.026;27.976;2023-10-31T00:40:27;9.60;;;6.15;;
81150;SDS011;70629;-26.026;27.976;2023-10-31T00:41:07;10.80;;;6.47;;
81150;SDS011;70629;-26.026;27.976;2023-10-31T00:41:47;10.75;;;6.65;;
81150;SDS011;70629;-26.026;27.976;2023-10-31T00:42:27;11.30;;;7.70;;
81150;SDS011;70629;-26.026;27.976;2023-10-31T00:43:07;11.50;;;7.25;;
81150;SDS011;70629;-26.026;27.976;2023-10-31T00:43:47;15.73;;;9.02;;
81150;SDS011;70629;-26.026;27.976;2023-10-31T00:44:26;15.55;;;9.07;;
81150;SDS011;70629;-26.026;27.976;2023-10-31T00:45:07;17.05;;;9.27;;
81150;SDS011;70629;-26.026;27.976;2023-10-31T00:45:47;16.77;;;10.25;;
81150;SDS011;70629;-26.026;27.976;2023-10-31T00:46:27;17.52;;;10.18;;
81150;SDS011;70629;-26.026;27.976;2023-10-31T00:47:07;17.70;;;10.68;;
81150;SDS011;70629;-26.026;27.976;2023-10-31T00:47:47;16.70;;;10.35;;
81150;SDS011;70629;-26.026;27.976;2023-10-31T00:48:27;16.95;;;10.93;;
81150;SDS011;70629;-26.026;27.976;2023-10-31T00:49:07;17.30;;;10.80;;
81150;SDS011;70629;-26.026;27.976;2023-10-31T00:49:46;19.50;;;10.23;;
81150;SDS011;70629;-26.026;27.976;2023-10-31T00:50:26;17.75;;;11.25;;
81150;SDS011;70629;-26.026;27.976;2023-10-31T00:51:07;18.33;;;10.27;;
81150;SDS011;70629;-26.026;27.976;2023-10-31T00:51:47;19.50;;;9.90;;
81150;SDS011;70629;-26.026;27.976;2023-10-31T00:52:26;19.73;;;10.05;;
81150;SDS011;70629;-26.026;27.976;2023-10-31T00:53:07;17.75;;;9.60;;
81150;SDS011;70629;-26.026;27.976;2023-10-31T00:53:47;16.85;;;8.90;;
81150;SDS011;70629;-26.026;27.976;2023-10-31T00:54:27;14.38;;;7.53;;
81150;SDS011;70629;-26.026;27.976;2023-10-31T00:55:06;13.75;;;7.25;;
81150;SDS011;70629;-26.026;27.976;2023-10-31T00:55:47;13.70;;;6.97;;
81150;SDS011;70629;-26.026;27.976;2023-10-31T00:56:27;12.82;;;6.85;;
81150;SDS011;70629;-26.026;27.976;2023-10-31T00:57:07;13.15;;;6.18;;
81150;SDS011;70629;-26.026;27.976;2023-10-31T00:57:47;9.70;;;5.78;;
81150;SDS011;70629;-26.026;27.976;2023-10-31T00:58:27;9.35;;;3.72;;
81150;SDS011;70629;-26.026;27.976;2023-10-31T00:59:07;7.38;;;3.58;;
81150;SDS011;70629;-26.026;27.976;2023-10-31T00:59:47;8.68;;;4.70;;
81150;SDS011;70629;-26.026;27.976;2023-10-31T01:00:27;7.70;;;3.60;;
81150;SDS011;70629;-26.026;27.976;2023-10-31T01:01:07;6.30;;;3.22;;
81150;SDS011;70629;-26.026;27.976;2023-10-31T01:01:47;7.88;;;3.38;;
81150;SDS011;70629;-26.026;27.976;2023-10-31T01:02:27;6.82;;;3.30;;
81150;SDS011;70629;-26.026;27.976;2023-10-31T01:03:07;6.20;;;2.60;;
81150;SDS011;70629;-26.026;27.976;2023-10-31T01:03:48;4.95;;;2.53;;
81150;SDS011;70629;-26.026;27.976;2023-10-31T01:04:27;4.43;;;2.55;;
81150;SDS011;70629;-26.026;27.976;2023-10-31T01:05:07;6.07;;;2.47;;
81150;SDS011;70629;-26.026;27.976;2023-10-31T01:05:47;5.75;;;2.85;;
81150;SDS011;70629;-26.026;27.976;2023-10-31T01:06:28;4.43;;;2.30;;
81150;SDS011;70629;-26.026;27.976;2023-10-31T01:07:08;4.80;;;2.40;;
81150;SDS011;70629;-26.026;27.976;2023-10-31T01:07:50;5.78;;;2.47;;
81150;SDS011;70629;-26.026;27.976;2023-10-31T01:08:30;6.93;;;2.25;;
81150;SDS011;70629;-26.026;27.976;2023-10-31T01:09:11;4.45;;;2.40;;
81150;SDS011;70629;-26.026;27.976;2023-10-31T01:09:51;4.13;;;2.22;;
81150;SDS011;70629;-26.026;27.976;2023-10-31T01:10:31;4.82;;;2.40;;
81150;SDS011;70629;-26.026;27.976;2023-10-31T01:11:11;4.13;;;2.38;;
81150;SDS011;70629;-26.026;27.976;2023-10-31T01:11:51;4.32;;;2.00;;
81150;SDS011;70629;-26.026;27.976;2023-10-31T01:12:31;4.65;;;2.17;;
81150;SDS011;70629;-26.026;27.976;2023-10-31T01:13:11;3.47;;;1.77;;
81150;SDS011;70629;-26.026;27.976;2023-10-31T01:13:51;3.72;;;1.98;;
81150;SDS011;70629;-26.026;27.976;2023-10-31T01:14:32;6.28;;;2.25;;
81150;SDS011;70629;-26.026;27.976;2023-10-31T01:15:12;5.03;;;2.38;;
81150;SDS011;70629;-26.026;27.976;2023-10-31T01:15:51;4.43;;;2.20;;
81150;SDS011;70629;-26.026;27.976;2023-10-31T01:16:31;4.65;;;2.30;;
81150;SDS011;70629;-26.026;27.976;2023-10-31T01:17:12;4.43;;;2.50;;
81150;SDS011;70629;-26.026;27.976;2023-10-31T01:17:51;3.63;;;1.90;;
81150;SDS011;70629;-26.026;27.976;2023-10-31T01:18:31;8.57;;;2.65;;
81150;SDS011;70629;-26.026;27.976;2023-10-31T01:19:11;4.20;;;2.22;;
81150;SDS011;70629;-26.026;27.976;2023-10-31T01:19:52;4.85;;;2.30;;
81150;SDS011;70629;-26.026;27.976;2023-10-31T01:20:32;3.88;;;2.03;;
81150;SDS011;70629;-26.026;27.976;2023-10-31T01:21:12;4.57;;;1.77;;
81150;SDS011;70629;-26.026;27.976;2023-10-31T01:21:52;3.83;;;1.75;;
81150;SDS011;70629;-26.026;27.976;2023-10-31T01:22:32;6.20;;;2.22;;
81150;SDS011;70629;-26.026;27.976;2023-10-31T01:23:12;5.10;;;2.25;;
81150;SDS011;70629;-26.026;27.976;2023-10-31T01:23:52;5.20;;;2.00;;
81150;SDS011;70629;-26.026;27.976;2023-10-31T01:24:31;4.00;;;2.00;;
81150;SDS011;70629;-26.026;27.976;2023-10-31T01:25:11;4.00;;;1.83;;
81150;SDS011;70629;-26.026;27.976;2023-10-31T01:25:51;3.80;;;2.20;;
81150;SDS011;70629;-26.026;27.976;2023-10-31T01:26:31;3.78;;;1.95;;
81150;SDS011;70629;-26.026;27.976;2023-10-31T01:27:11;3.75;;;1.80;;
81150;SDS011;70629;-26.026;27.976;2023-10-31T01:27:51;4.25;;;1.75;;
81150;SDS011;70629;-26.026;27.976;2023-10-31T01:28:31;2.83;;;1.58;;
81150;SDS011;70629;-26.026;27.976;2023-10-31T01:29:11;3.75;;;2.05;;
81150;SDS011;70629;-26.026;27.976;2023-10-31T01:29:52;4.47;;;2.10;;
81150;SDS011;70629;-26.026;27.976;2023-10-31T01:30:32;3.47;;;1.55;;
81150;SDS011;70629;-26.026;27.976;2023-10-31T01:31:12;3.50;;;2.08;;
81150;SDS011;70629;-26.026;27.976;2023-10-31T01:31:52;4.05;;;2.10;;
81150;SDS011;70629;-26.026;27.976;2023-10-31T01:32:38;3.70;;;1.98;;
81150;SDS011;70629;-26.026;27.976;2023-10-31T01:33:18;3.85;;;2.10;;
81150;SDS011;70629;-26.026;27.976;2023-10-31T01:33:58;4.32;;;2.20;;
81150;SDS011;70629;-26.026;27.976;2023-10-31T01:34:38;4.47;;;1.90;;
81150;SDS011;70629;-26.026;27.976;2023-10-31T01:35:18;3.42;;;2.17;;
81150;SDS011;70629;-26.026;27.976;2023-10-31T01:35:58;4.40;;;2.10;;
81150;SDS011;70629;-26.026;27.976;2023-10-31T01:36:38;3.92;;;2.10;;
81150;SDS011;70629;-26.026;27.976;2023-10-31T01:37:18;5.65;;;2.10;;
81150;SDS011;70629;-26.026;27.976;2023-10-31T01:37:59;4.03;;;2.20;;
81150;SDS011;70629;-26.026;27.976;2023-10-31T01:38:41;3.55;;;2.08;;
81150;SDS011;70629;-26.026;27.976;2023-10-31T01:39:22;5.35;;;2.20;;
81150;SDS011;70629;-26.026;27.976;2023-10-31T01:40:02;7.05;;;2.90;;
81150;SDS011;70629;-26.026;27.976;2023-10-31T01:40:43;3.70;;;2.20;;
81150;SDS011;70629;-26.026;27.976;2023-10-31T01:41:25;4.32;;;2.50;;
81150;SDS011;70629;-26.026;27.976;2023-10-31T01:42:04;5.22;;;2.50;;
81150;SDS011;70629;-26.026;27.976;2023-10-31T01:42:44;5.03;;;2.33;;
81150;SDS011;70629;-26.026;27.976;2023-10-31T01:44:12;4.45;;;2.22;;
81150;SDS011;70629;-26.026;27.976;2023-10-31T01:44:51;5.22;;;2.78;;
81150;SDS011;70629;-26.026;27.976;2023-10-31T01:45:31;4.10;;;2.30;;
81150;SDS011;70629;-26.026;27.976;2023-10-31T01:46:11;5.82;;;2.65;;
81150;SDS011;70629;-26.026;27.976;2023-10-31T01:46:51;4.95;;;2.50;;
81150;SDS011;70629;-26.026;27.976;2023-10-31T01:47:31;5.00;;;2.47;;
81150;SDS011;70629;-26.026;27.976;2023-10-31T01:48:11;6.47;;;2.92;;
81150;SDS011;70629;-26.026;27.976;2023-10-31T01:48:51;4.50;;;2.40;;
81150;SDS011;70629;-26.026;27.976;2023-10-31T01:49:34;4.50;;;2.60;;
81150;SDS011;70629;-26.026;27.976;2023-10-31T01:50:15;4.22;;;2.38;;
81150;SDS011;70629;-26.026;27.976;2023-10-31T01:50:56;5.45;;;2.58;;
81150;SDS011;70629;-26.026;27.976;2023-10-31T01:51:38;5.07;;;2.58;;
81150;SDS011;70629;-26.026;27.976;2023-10-31T01:52:20;6.20;;;2.75;;
81150;SDS011;70629;-26.026;27.976;2023-10-31T01:53:00;5.30;;;2.90;;
81150;SDS011;70629;-26.026;27.976;2023-10-31T01:53:41;5.90;;;2.78;;
81150;SDS011;70629;-26.026;27.976;2023-10-31T01:54:21;6.30;;;3.35;;
81150;SDS011;70629;-26.026;27.976;2023-10-31T01:55:02;4.55;;;2.90;;
81150;SDS011;70629;-26.026;27.976;2023-10-31T01:55:44;8.38;;;3.47;;
81150;SDS011;70629;-26.026;27.976;2023-10-31T01:56:25;6.03;;;2.78;;
81150;SDS011;70629;-26.026;27.976;2023-10-31T01:57:05;7.60;;;3.20;;
81150;SDS011;70629;-26.026;27.976;2023-10-31T01:57:46;8.30;;;3.40;;
81150;SDS011;70629;-26.026;27.976;2023-10-31T01:58:31;7.30;;;3.55;;
81150;SDS011;70629;-26.026;27.976;2023-10-31T01:59:13;6.13;;;3.15;;
81150;SDS011;70629;-26.026;27.976;2023-10-31T01:59:54;8.05;;;3.30;;
81150;SDS011;70629;-26.026;27.976;2023-10-31T02:00:35;6.45;;;3.08;;
81150;SDS011;70629;-26.026;27.976;2023-10-31T02:01:16;6.78;;;3.25;;
81150;SDS011;70629;-26.026;27.976;2023-10-31T02:01:56;5.70;;;3.60;;
81150;SDS011;70629;-26.026;27.976;2023-10-31T02:02:36;5.68;;;3.33;;
81150;SDS011;70629;-26.026;27.976;2023-10-31T02:03:21;6.68;;;3.50;;
81150;SDS011;70629;-26.026;27.976;2023-10-31T02:04:01;7.47;;;3.00;;
81150;SDS011;70629;-26.026;27.976;2023-10-31T02:04:41;8.95;;;3.47;;
81150;SDS011;70629;-26.026;27.976;2023-10-31T02:05:21;7.03;;;2.92;;
81150;SDS011;70629;-26.026;27.976;2023-10-31T02:06:02;4.93;;;2.80;;
81150;SDS011;70629;-26.026;27.976;2023-10-31T02:06:43;5.78;;;2.92;;
81150;SDS011;70629;-26.026;27.976;2023-10-31T02:07:23;6.68;;;2.42;;
81150;SDS011;70629;-26.026;27.976;2023-10-31T02:08:03;4.95;;;2.50;;
81150;SDS011;70629;-26.026;27.976;2023-10-31T02:08:47;6.30;;;2.80;;
81150;SDS011;70629;-26.026;27.976;2023-10-31T02:09:27;4.70;;;2.75;;
81150;SDS011;70629;-26.026;27.976;2023-10-31T02:10:08;5.63;;;2.60;;
81150;SDS011;70629;-26.026;27.976;2023-10-31T02:10:48;5.47;;;2.30;;
81150;SDS011;70629;-26.026;27.976;2023-10-31T02:11:29;5.45;;;2.33;;
81150;SDS011;70629;-26.026;27.976;2023-10-31T02:12:10;4.45;;;2.00;;
81150;SDS011;70629;-26.026;27.976;2023-10-31T02:12:49;4.28;;;2.10;;
81150;SDS011;70629;-26.026;27.976;2023-10-31T02:13:29;4.82;;;2.38;;
81150;SDS011;70629;-26.026;27.976;2023-10-31T02:14:09;3.67;;;2.05;;
81150;SDS011;70629;-26.026;27.976;2023-10-31T02:14:50;5.70;;;2.22;;
81150;SDS011;70629;-26.026;27.976;2023-10-31T02:15:29;5.70;;;2.47;;
81150;SDS011;70629;-26.026;27.976;2023-10-31T02:16:09;4.43;;;1.92;;
81150;SDS011;70629;-26.026;27.976;2023-10-31T02:16:50;4.72;;;2.28;;
81150;SDS011;70629;-26.026;27.976;2023-10-31T02:17:30;5.07;;;1.83;;
81150;SDS011;70629;-26.026;27.976;2023-10-31T02:18:10;3.63;;;1.60;;
81150;SDS011;70629;-26.026;27.976;2023-10-31T02:18:50;5.22;;;2.08;;
81150;SDS011;70629;-26.026;27.976;2023-10-31T02:19:31;3.72;;;1.80;;
81150;SDS011;70629;-26.026;27.976;2023-10-31T02:20:10;3.30;;;1.70;;
81150;SDS011;70629;-26.026;27.976;2023-10-31T02:20:50;3.45;;;1.60;;
81150;SDS011;70629;-26.026;27.976;2023-10-31T02:21:30;4.93;;;1.75;;
81150;SDS011;70629;-26.026;27.976;2023-10-31T02:22:11;5.38;;;1.80;;
81150;SDS011;70629;-26.026;27.976;2023-10-31T02:22:51;4.13;;;1.95;;
81150;SDS011;70629;-26.026;27.976;2023-10-31T02:23:31;4.32;;;2.00;;
81150;SDS011;70629;-26.026;27.976;2023-10-31T02:24:11;4.65;;;2.13;;
81150;SDS011;70629;-26.026;27.976;2023-10-31T02:24:51;4.00;;;1.40;;
81150;SDS011;70629;-26.026;27.976;2023-10-31T02:25:31;4.68;;;1.70;;
81150;SDS011;70629;-26.026;27.976;2023-10-31T02:26:11;3.35;;;1.90;;
81150;SDS011;70629;-26.026;27.976;2023-10-31T02:26:51;3.92;;;1.85;;
81150;SDS011;70629;-26.026;27.976;2023-10-31T02:27:31;3.65;;;1.77;;
81150;SDS011;70629;-26.026;27.976;2023-10-31T02:28:11;3.58;;;1.52;;
81150;SDS011;70629;-26.026;27.976;2023-10-31T02:28:51;3.22;;;1.65;;
81150;SDS011;70629;-26.026;27.976;2023-10-31T02:29:31;5.35;;;2.42;;
81150;SDS011;70629;-26.026;27.976;2023-10-31T02:30:11;3.80;;;1.90;;
81150;SDS011;70629;-26.026;27.976;2023-10-31T02:30:51;4.05;;;1.98;;
81150;SDS011;70629;-26.026;27.976;2023-10-31T02:31:31;3.78;;;1.77;;
81150;SDS011;70629;-26.026;27.976;2023-10-31T02:32:11;3.92;;;1.95;;
81150;SDS011;70629;-26.026;27.976;2023-10-31T02:32:51;3.63;;;1.98;;
81150;SDS011;70629;-26.026;27.976;2023-10-31T02:33:31;4.28;;;1.98;;
81150;SDS011;70629;-26.026;27.976;2023-10-31T02:34:11;4.18;;;2.30;;
81150;SDS011;70629;-26.026;27.976;2023-10-31T02:34:53;4.63;;;2.20;;
81150;SDS011;70629;-26.026;27.976;2023-10-31T02:35:34;4.22;;;2.10;;
81150;SDS011;70629;-26.026;27.976;2023-10-31T02:36:14;4.68;;;2.22;;
81150;SDS011;70629;-26.026;27.976;2023-10-31T02:36:54;3.58;;;1.90;;
81150;SDS011;70629;-26.026;27.976;2023-10-31T02:37:34;6.20;;;2.08;;
81150;SDS011;70629;-26.026;27.976;2023-10-31T02:38:15;4.28;;;2.03;;
81150;SDS011;70629;-26.026;27.976;2023-10-31T02:38:55;2.92;;;1.52;;
81150;SDS011;70629;-26.026;27.976;2023-10-31T02:39:34;3.53;;;1.63;;
81150;SDS011;70629;-26.026;27.976;2023-10-31T02:40:14;3.85;;;1.63;;
81150;SDS011;70629;-26.026;27.976;2023-10-31T02:40:55;3.78;;;1.50;;
81150;SDS011;70629;-26.026;27.976;2023-10-31T02:41:35;3.45;;;1.58;;
81150;SDS011;70629;-26.026;27.976;2023-10-31T02:42:14;2.97;;;1.33;;
81150;SDS011;70629;-26.026;27.976;2023-10-31T02:42:54;3.28;;;1.17;;
81150;SDS011;70629;-26.026;27.976;2023-10-31T02:43:34;2.45;;;1.05;;
81150;SDS011;70629;-26.026;27.976;2023-10-31T02:44:17;3.05;;;1.27;;
81150;SDS011;70629;-26.026;27.976;2023-10-31T02:44:57;4.78;;;1.42;;
81150;SDS011;70629;-26.026;27.976;2023-10-31T02:45:37;3.17;;;1.45;;
81150;SDS011;70629;-26.026;27.976;2023-10-31T02:46:17;3.05;;;1.63;;
81150;SDS011;70629;-26.026;27.976;2023-10-31T02:46:58;3.55;;;1.75;;
81150;SDS011;70629;-26.026;27.976;2023-10-31T02:47:38;3.15;;;1.50;;
81150;SDS011;70629;-26.026;27.976;2023-10-31T02:48:18;3.90;;;1.63;;
81150;SDS011;70629;-26.026;27.976;2023-10-31T02:48:59;4.90;;;1.77;;
81150;SDS011;70629;-26.026;27.976;2023-10-31T02:49:39;2.90;;;1.30;;
81150;SDS011;70629;-26.026;27.976;2023-10-31T02:50:19;3.33;;;1.30;;
81150;SDS011;70629;-26.026;27.976;2023-10-31T02:50:58;4.25;;;1.50;;
81150;SDS011;70629;-26.026;27.976;2023-10-31T02:51:39;3.80;;;1.40;;
81150;SDS011;70629;-26.026;27.976;2023-10-31T02:52:19;4.18;;;1.40;;
81150;SDS011;70629;-26.026;27.976;2023-10-31T02:52:59;3.35;;;1.42;;
81150;SDS011;70629;-26.026;27.976;2023-10-31T02:53:38;2.50;;;1.17;;
81150;SDS011;70629;-26.026;27.976;2023-10-31T02:54:19;3.25;;;1.20;;
81150;SDS011;70629;-26.026;27.976;2023-10-31T02:54:59;2.88;;;1.52;;
81150;SDS011;70629;-26.026;27.976;2023-10-31T02:55:39;2.53;;;1.30;;
81150;SDS011;70629;-26.026;27.976;2023-10-31T02:56:18;2.13;;;1.10;;
81150;SDS011;70629;-26.026;27.976;2023-10-31T02:56:59;3.45;;;1.60;;
81150;SDS011;70629;-26.026;27.976;2023-10-31T02:57:39;2.97;;;1.25;;
81150;SDS011;70629;-26.026;27.976;2023-10-31T02:58:18;3.17;;;1.30;;
81150;SDS011;70629;-26.026;27.976;2023-10-31T02:58:58;4.88;;;1.67;;
81150;SDS011;70629;-26.026;27.976;2023-10-31T02:59:38;2.65;;;1.60;;
81150;SDS011;70629;-26.026;27.976;2023-10-31T03:00:18;3.00;;;1.30;;
81150;SDS011;70629;-26.026;27.976;2023-10-31T03:00:58;3.22;;;1.42;;
81150;SDS011;70629;-26.026;27.976;2023-10-31T03:01:38;3.03;;;1.10;;
81150;SDS011;70629;-26.026;27.976;2023-10-31T03:02:18;4.28;;;1.80;;
81150;SDS011;70629;-26.026;27.976;2023-10-31T03:02:58;3.42;;;1.70;;
81150;SDS011;70629;-26.026;27.976;2023-10-31T03:03:38;3.30;;;1.40;;
81150;SDS011;70629;-26.026;27.976;2023-10-31T03:04:18;2.75;;;1.25;;
81150;SDS011;70629;-26.026;27.976;2023-10-31T03:04:59;2.50;;;1.00;;
81150;SDS011;70629;-26.026;27.976;2023-10-31T03:05:40;4.05;;;1.60;;
81150;SDS011;70629;-26.026;27.976;2023-10-31T03:06:20;3.63;;;1.52;;
81150;SDS011;70629;-26.026;27.976;2023-10-31T03:07:00;4.05;;;1.67;;
81150;SDS011;70629;-26.026;27.976;2023-10-31T03:07:41;3.30;;;1.55;;
81150;SDS011;70629;-26.026;27.976;2023-10-31T03:08:20;5.47;;;1.90;;
81150;SDS011;70629;-26.026;27.976;2023-10-31T03:09:01;3.83;;;1.70;;
81150;SDS011;70629;-26.026;27.976;2023-10-31T03:09:41;3.67;;;1.75;;
81150;SDS011;70629;-26.026;27.976;2023-10-31T03:10:21;3.20;;;1.45;;
81150;SDS011;70629;-26.026;27.976;2023-10-31T03:11:01;4.13;;;1.75;;
81150;SDS011;70629;-26.026;27.976;2023-10-31T03:11:41;3.72;;;1.75;;
81150;SDS011;70629;-26.026;27.976;2023-10-31T03:12:21;3.40;;;1.60;;
81150;SDS011;70629;-26.026;27.976;2023-10-31T03:13:01;4.07;;;2.30;;
81150;SDS011;70629;-26.026;27.976;2023-10-31T03:13:41;3.92;;;1.70;;
81150;SDS011;70629;-26.026;27.976;2023-10-31T03:14:21;4.05;;;1.90;;
81150;SDS011;70629;-26.026;27.976;2023-10-31T03:15:01;4.00;;;2.00;;
81150;SDS011;70629;-26.026;27.976;2023-10-31T03:15:43;3.70;;;2.20;;
81150;SDS011;70629;-26.026;27.976;2023-10-31T03:16:24;3.97;;;1.55;;
81150;SDS011;70629;-26.026;27.976;2023-10-31T03:17:04;3.60;;;1.58;;
81150;SDS011;70629;-26.026;27.976;2023-10-31T03:17:44;3.65;;;1.90;;
81150;SDS011;70629;-26.026;27.976;2023-10-31T03:18:24;3.85;;;1.60;;
81150;SDS011;70629;-26.026;27.976;2023-10-31T03:19:04;3.90;;;1.80;;
81150;SDS011;70629;-26.026;27.976;2023-10-31T03:19:44;4.15;;;1.55;;
81150;SDS011;70629;-26.026;27.976;2023-10-31T03:20:24;3.25;;;1.50;;
81150;SDS011;70629;-26.026;27.976;2023-10-31T03:21:04;3.35;;;1.55;;
81150;SDS011;70629;-26.026;27.976;2023-10-31T03:21:44;3.92;;;1.50;;
81150;SDS011;70629;-26.026;27.976;2023-10-31T03:22:25;4.65;;;1.70;;
81150;SDS011;70629;-26.026;27.976;2023-10-31T03:23:05;3.38;;;1.27;;
81150;SDS011;70629;-26.026;27.976;2023-10-31T03:23:49;4.07;;;1.50;;
81150;SDS011;70629;-26.026;27.976;2023-10-31T03:24:31;3.55;;;1.70;;
81150;SDS011;70629;-26.026;27.976;2023-10-31T03:25:11;4.63;;;1.48;;
81150;SDS011;70629;-26.026;27.976;2023-10-31T03:25:51;3.85;;;1.67;;
81150;SDS011;70629;-26.026;27.976;2023-10-31T03:26:33;3.72;;;1.50;;
81150;SDS011;70629;-26.026;27.976;2023-10-31T03:27:13;3.80;;;1.63;;
81150;SDS011;70629;-26.026;27.976;2023-10-31T03:27:53;3.88;;;1.30;;
81150;SDS011;70629;-26.026;27.976;2023-10-31T03:28:33;3.78;;;2.10;;
81150;SDS011;70629;-26.026;27.976;2023-10-31T03:29:13;3.55;;;1.25;;
81150;SDS011;70629;-26.026;27.976;2023-10-31T03:29:53;3.13;;;1.38;;
81150;SDS011;70629;-26.026;27.976;2023-10-31T03:30:33;3.05;;;1.17;;
81150;SDS011;70629;-26.026;27.976;2023-10-31T03:31:12;3.35;;;1.40;;
81150;SDS011;70629;-26.026;27.976;2023-10-31T03:31:54;5.15;;;1.80;;
81150;SDS011;70629;-26.026;27.976;2023-10-31T03:32:34;3.67;;;1.70;;
81150;SDS011;70629;-26.026;27.976;2023-10-31T03:33:14;3.35;;;1.50;;
81150;SDS011;70629;-26.026;27.976;2023-10-31T03:33:55;4.30;;;1.60;;
81150;SDS011;70629;-26.026;27.976;2023-10-31T03:34:36;3.40;;;1.50;;
81150;SDS011;70629;-26.026;27.976;2023-10-31T03:35:16;4.43;;;1.80;;
81150;SDS011;70629;-26.026;27.976;2023-10-31T03:35:56;3.50;;;1.77;;
81150;SDS011;70629;-26.026;27.976;2023-10-31T03:36:36;3.38;;;1.73;;
81150;SDS011;70629;-26.026;27.976;2023-10-31T03:37:17;3.00;;;1.35;;
81150;SDS011;70629;-26.026;27.976;2023-10-31T03:37:57;4.47;;;1.70;;
81150;SDS011;70629;-26.026;27.976;2023-10-31T03:38:37;3.78;;;1.80;;
81150;SDS011;70629;-26.026;27.976;2023-10-31T03:39:17;3.35;;;1.50;;
81150;SDS011;70629;-26.026;27.976;2023-10-31T03:39:57;3.72;;;1.52;;
81150;SDS011;70629;-26.026;27.976;2023-10-31T03:40:37;3.70;;;1.40;;
81150;SDS011;70629;-26.026;27.976;2023-10-31T03:41:17;3.15;;;1.40;;
81150;SDS011;70629;-26.026;27.976;2023-10-31T03:41:57;2.92;;;1.20;;
81150;SDS011;70629;-26.026;27.976;2023-10-31T03:42:37;3.65;;;1.40;;
81150;SDS011;70629;-26.026;27.976;2023-10-31T03:43:17;3.50;;;1.40;;
81150;SDS011;70629;-26.026;27.976;2023-10-31T03:43:57;2.30;;;1.08;;
81150;SDS011;70629;-26.026;27.976;2023-10-31T03:44:37;4.20;;;1.75;;
81150;SDS011;70629;-26.026;27.976;2023-10-31T03:45:17;3.15;;;1.67;;
81150;SDS011;70629;-26.026;27.976;2023-10-31T03:45:57;3.45;;;1.40;;
81150;SDS011;70629;-26.026;27.976;2023-10-31T03:46:37;2.67;;;1.20;;
81150;SDS011;70629;-26.026;27.976;2023-10-31T03:47:17;4.78;;;1.55;;
81150;SDS011;70629;-26.026;27.976;2023-10-31T03:47:57;4.82;;;1.80;;
81150;SDS011;70629;-26.026;27.976;2023-10-31T03:48:37;3.28;;;1.42;;
81150;SDS011;70629;-26.026;27.976;2023-10-31T03:49:17;4.90;;;1.80;;
81150;SDS011;70629;-26.026;27.976;2023-10-31T03:49:57;3.53;;;2.05;;
81150;SDS011;70629;-26.026;27.976;2023-10-31T03:50:38;3.03;;;1.42;;
81150;SDS011;70629;-26.026;27.976;2023-10-31T03:51:17;3.15;;;1.55;;
81150;SDS011;70629;-26.026;27.976;2023-10-31T03:51:57;3.83;;;1.70;;
81150;SDS011;70629;-26.026;27.976;2023-10-31T03:52:37;3.53;;;1.58;;
81150;SDS011;70629;-26.026;27.976;2023-10-31T03:53:17;2.67;;;1.17;;
81150;SDS011;70629;-26.026;27.976;2023-10-31T03:53:57;3.00;;;1.20;;
81150;SDS011;70629;-26.026;27.976;2023-10-31T03:54:37;3.15;;;1.20;;
81150;SDS011;70629;-26.026;27.976;2023-10-31T03:55:17;2.60;;;1.30;;
81150;SDS011;70629;-26.026;27.976;2023-10-31T03:55:58;2.53;;;1.15;;
81150;SDS011;70629;-26.026;27.976;2023-10-31T03:56:39;2.63;;;1.27;;